Terminal Aerodrome Forecast
Issued by NWS Pittsburgh, PA

Current Version | Previous Version | Graphics & Text | Print | Product List | Glossary On
Versions: 1 2 3 4 5 6 7 8 9 10 11 12 13 14 15 16 17 18 19 20 21 22 23 24 25 26 27 28 29 30 31 32 33 34
342
FTUS41 KPBZ 242257 AAD
TAFPIT
TAF AMD
KPIT 242257Z 2423/2524 15010G18KT 6SM -RA BKN025
     FM250600 11008G14KT P6SM -SHRA OVC012
     FM251200 17008KT P6SM -SHRA OVC020
     FM251700 22008KT P6SM BKN050=

USA.gov is the U.S. government's official web portal to all federal, state and local government web resources and services.